NATURA VA

 METAR AND TAF INFORMATION
METAR FOR LPMA
ADDS - METARS form results

(0327 UTC 16 January 2019)
Data provider http://aviationweather.gov/metar/data/
 
METAR text: LPMA 160300Z 31004KT 280V360 9999 SCT016 15/08 Q1024
Conditions at: LPMA (FUNCHAL/MADEIRA , PT) observed 0300 UTC 16 January 2019
Temperature: 15.0°C (59°F)
Dewpoint: 8.0°C (46°F) [RH = 63%]
Pressure (altimeter): 30.24 inches Hg (1024.0 mb)
Winds: from the NW (310 degrees) at 5 MPH (4 knots; 2.1 m/s)
Visibility: 6 or more miles (10+ km)
Ceiling: at least 12,000 feet AGL
Clouds: scattered clouds at 1600 feet AGL
Weather: no significant weather observed at this time

METAR text: LPMA 160230Z 33004KT 9999 SCT016 16/09 Q1024
Conditions at: LPMA (FUNCHAL/MADEIRA , PT) observed 0230 UTC 16 January 2019
Temperature: 16.0°C (61°F)
Dewpoint: 9.0°C (48°F) [RH = 63%]
Pressure (altimeter): 30.24 inches Hg (1024.0 mb)
Winds: from the NNW (330 degrees) at 5 MPH (4 knots; 2.1 m/s)
Visibility: 6 or more miles (10+ km)
Ceiling: at least 12,000 feet AGL
Clouds: scattered clouds at 1600 feet AGL
Weather: no significant weather observed at this time

Forecast for: LPMA (FUNCHAL/MADEIRA , PT)
Text: TAF LPMA 152300Z 1600/1624 34008KT 9999 SCT015
Forecast period: 0000 UTC 16 January 2019 to 0000 UTC 17 January 2019
Forecast type: FROM: standard forecast or significant change
Winds: from the NNW (340 degrees) at 9 MPH (8 knots; 4.1 m/s)
Visibility: 6 or more miles 10+ km)
Ceiling: at least 12,000 feet AGL
Clouds: scattered clouds at 1500 feet AGL
Weather: no significant weather forecast for this period
Text: TEMPO 1600/1624 SCT015 BKN030
Forecast period: 0000 UTC 16 January 2019 to 0000 UTC 17 January 2019
Forecast type: TEMPORARY: The following changes expected for less than half the time period
Visibility: missing
Ceiling: 3000 feet AGL
Clouds: scattered clouds at 1500 feet AGL
broken clouds at 3000 feet AGL
Weather: no significant weather forecast for this period
Text: PROB30
Forecast period: 0800 UTC 16 January 2019 to 0000 UTC 17 January 2019
Forecast type: TEMPORARY: The following changes expected for less than half the time period
Visibility: 4 miles (6 km)
Ceiling: 1300 feet AGL
Clouds: broken clouds at 1300 feet AGL
Weather: -RA  (light rain)

 AIRPORT MAP

 RUNWAY INFORMATION
Runway 05 Runway length 9110 ft Runway width 148 ft
Runway elevation 147 ft Runway displaced threshold 480 ft Runway heading 45
Runway 23 Runway length 9110 ft Runway width 148 ft
Runway elevation 192 ft Runway displaced threshold 490 ft Runway heading 225

 AIRPORT FREQUENCIES
Type APP Name APP Frequency 119.2 MHZ
Type TWR Name TWR Frequency 118.35 MHZ

 AIRPORT NEAR NAVIGATION AIDS
Type VOR-DME Name Madeira Frequency 112200 KHZ
Type NDB Name Madeira Frequency 318 KHZ



Powered by Virtual Airlines Manager [v2.6.2]